Kezdőlap
METAR-TAF:

METAR-TAF

Repülőterek :

Creston, Iowa, Amerikai Egyesült Államok

földrajzi szélesség: 41-01N, földrajzi hosszúság: 094-22W, magasság: 394 m

Jelenlegi meteorológiai megfigyelések

A jelentés 22 perccel ezelõtt készült, 14:55 UTC
Nyugati szél 6 kt
Hőmérséklet 24°C
Páratartalom 83%
Légköri nyomás 1015 hPa
Látótávolság: 16.1 km
Derült ég

METAR: KCSQ 231455Z AUTO 27006KT 10SM CLR 24/21 A2996 RMK AO2

Idő: 10:17 (15:17 UTC)


TAF: hiányzik

Meteorológiai megfigyelések és előrejelzések több, mint 4000 repülőtéren (METAR és TAF jelentéseket).

A térképen piros és sárga pontok jelzik az elérhető meteorológiai állomásokat.

Mozgassa az egeret a pont fölött, hogy megjelenjen az állomás neve.

Azután kattintson az időjárási megfigyelések és előrejelzések megtekintéséhez.

A térkép megváltoztatása: kattintson a fekete keresztel jelölt zöld gombra ráközelítéshez, a vonallal jelölt zöld gombra távolításhoz, vagy a zöld nyilakra a szomszédos térképek eléréséhez.


METAR-TAF: